createdAt,value
2019-02-11T00:00:14.389Z,0.00
2019-02-11T00:01:14.374Z,0.00
2019-02-11T00:02:14.357Z,0.00
2019-02-11T00:03:14.344Z,0.00
2019-02-11T00:04:14.326Z,0.00
2019-02-11T00:05:14.311Z,0.00
2019-02-11T00:06:14.295Z,0.00
2019-02-11T00:07:14.280Z,0.00
2019-02-11T00:08:14.265Z,0.00
2019-02-11T00:09:14.268Z,0.00
2019-02-11T00:10:14.233Z,0.00
2019-02-11T00:11:14.218Z,0.00
2019-02-11T00:12:14.203Z,0.00
2019-02-11T00:13:14.188Z,0.00
2019-02-11T00:14:14.172Z,0.00
2019-02-11T00:15:14.160Z,0.00
2019-02-11T00:16:14.142Z,0.00
2019-02-11T00:17:14.126Z,0.00
2019-02-11T00:18:14.110Z,0.00
2019-02-11T00:19:14.095Z,0.00
2019-02-11T00:20:14.085Z,0.00
2019-02-11T00:21:14.066Z,0.00
2019-02-11T00:22:14.050Z,0.00
2019-02-11T00:23:14.035Z,0.00
2019-02-11T00:24:14.048Z,0.00
2019-02-11T00:25:14.006Z,0.00
2019-02-11T00:26:13.989Z,0.00
2019-02-11T00:27:13.975Z,0.00
2019-02-11T00:28:13.959Z,0.00
2019-02-11T00:29:13.944Z,0.00
2019-02-11T00:30:13.932Z,0.00
2019-02-11T00:31:13.959Z,0.00
2019-02-11T00:32:13.899Z,0.00
2019-02-11T00:33:13.884Z,0.00
2019-02-11T00:34:13.869Z,0.00
2019-02-11T00:35:13.856Z,0.00
2019-02-11T00:36:13.838Z,0.00
2019-02-11T00:37:13.823Z,0.00
2019-02-11T00:38:13.810Z,0.00
2019-02-11T00:39:13.794Z,0.00
2019-02-11T00:40:13.783Z,0.00
2019-02-11T00:41:13.763Z,0.00
2019-02-11T00:42:13.748Z,0.00
2019-02-11T00:43:19.010Z,0.00
2019-02-11T00:44:13.719Z,0.00
2019-02-11T00:45:13.703Z,0.00
2019-02-11T00:46:13.687Z,0.00
2019-02-11T00:47:13.675Z,0.00
2019-02-11T00:48:13.658Z,0.00
2019-02-11T00:49:13.645Z,0.00
2019-02-11T00:50:13.629Z,0.00
2019-02-11T00:51:13.612Z,0.00
2019-02-11T00:52:13.597Z,0.00
2019-02-11T00:53:13.588Z,0.00
2019-02-11T00:54:13.594Z,0.00
2019-02-11T00:55:13.551Z,0.00
2019-02-11T00:56:13.537Z,0.00
2019-02-11T00:57:13.522Z,0.00
2019-02-11T00:58:13.555Z,0.00
2019-02-11T00:59:13.498Z,0.00
2019-02-11T01:00:13.475Z,0.00
2019-02-11T01:01:13.463Z,0.00
2019-02-11T01:02:13.445Z,0.00
2019-02-11T01:03:13.430Z,0.00
2019-02-11T01:04:13.415Z,0.00
2019-02-11T01:05:13.399Z,0.00
2019-02-11T01:06:13.384Z,0.00
2019-02-11T01:07:13.369Z,0.00
2019-02-11T01:08:13.353Z,0.00
2019-02-11T01:09:13.337Z,0.00
2019-02-11T01:10:13.322Z,0.00
2019-02-11T01:11:13.307Z,0.00
2019-02-11T01:12:13.291Z,0.00
2019-02-11T01:13:13.280Z,0.00
2019-02-11T01:14:13.260Z,0.00
2019-02-11T01:15:13.244Z,0.00
2019-02-11T01:16:13.229Z,0.00
2019-02-11T01:17:13.216Z,0.00
2019-02-11T01:18:13.197Z,0.00
2019-02-11T01:19:13.183Z,0.00
2019-02-11T01:20:13.167Z,0.00
2019-02-11T01:21:13.151Z,0.00
2019-02-11T01:22:13.135Z,0.00
2019-02-11T01:23:13.170Z,0.00
2019-02-11T01:24:13.104Z,0.00
2019-02-11T01:25:13.089Z,0.00
2019-02-11T01:26:13.072Z,0.00
2019-02-11T01:27:13.058Z,0.00
2019-02-11T01:28:13.041Z,0.00
2019-02-11T01:29:13.026Z,0.00
2019-02-11T01:30:13.010Z,0.00
2019-02-11T01:31:12.994Z,0.00
2019-02-11T01:32:12.979Z,0.00
2019-02-11T01:33:12.963Z,0.00
2019-02-11T01:34:12.947Z,0.00
2019-02-11T01:35:12.931Z,0.00
2019-02-11T01:36:12.916Z,0.00
2019-02-11T01:37:12.903Z,0.00
2019-02-11T01:38:12.884Z,0.00
2019-02-11T01:39:12.869Z,0.00
2019-02-11T01:40:12.904Z,0.00
2019-02-11T01:41:12.838Z,0.00
2019-02-11T01:42:12.829Z,0.00
2019-02-11T01:43:12.808Z,0.00
2019-02-11T01:44:12.792Z,0.00
2019-02-11T01:45:12.776Z,0.00
2019-02-11T01:46:12.760Z,0.00
2019-02-11T01:47:12.745Z,0.00
2019-02-11T01:48:12.730Z,0.00
2019-02-11T01:49:12.715Z,0.00
2019-02-11T01:50:12.698Z,0.00
2019-02-11T01:51:12.683Z,0.00
2019-02-11T01:52:12.667Z,0.00
2019-02-11T01:53:12.652Z,0.00
2019-02-11T01:54:12.636Z,0.00
2019-02-11T01:55:12.620Z,0.00
2019-02-11T01:56:12.606Z,0.00
2019-02-11T01:57:12.590Z,0.00
2019-02-11T01:58:12.574Z,0.00
2019-02-11T01:59:12.558Z,0.00
2019-02-11T02:00:12.543Z,0.00
2019-02-11T02:01:12.527Z,0.00
2019-02-11T02:02:12.511Z,0.00
2019-02-11T02:03:12.496Z,0.00
2019-02-11T02:04:12.482Z,0.00
2019-02-11T02:05:12.467Z,0.00
2019-02-11T02:06:12.453Z,0.00
2019-02-11T02:07:12.434Z,0.00
2019-02-11T02:08:12.419Z,0.00
2019-02-11T02:09:12.404Z,0.00
2019-02-11T02:10:12.387Z,0.00
2019-02-11T02:11:12.372Z,0.00
2019-02-11T02:12:12.357Z,0.00
2019-02-11T02:13:12.342Z,0.00
2019-02-11T02:14:12.326Z,0.00
2019-02-11T02:15:12.311Z,0.00
2019-02-11T02:16:12.295Z,0.00
2019-02-11T02:17:12.281Z,0.00
2019-02-11T02:18:12.264Z,0.00
2019-02-11T02:19:12.251Z,0.00
2019-02-11T02:20:12.236Z,0.00
2019-02-11T02:21:12.219Z,0.00
2019-02-11T02:22:12.204Z,0.00
2019-02-11T02:23:12.189Z,0.00
2019-02-11T02:24:12.174Z,0.00
2019-02-11T02:25:12.159Z,0.00
2019-02-11T02:26:12.143Z,0.00
2019-02-11T02:27:12.133Z,0.00
2019-02-11T02:28:12.114Z,0.00
2019-02-11T02:29:12.102Z,0.00
2019-02-11T02:30:12.083Z,0.00
2019-02-11T02:31:12.070Z,0.00
2019-02-11T02:32:12.056Z,0.00
2019-02-11T02:33:12.039Z,0.00
2019-02-11T02:34:12.023Z,0.00
2019-02-11T02:35:12.008Z,0.00
2019-02-11T02:36:11.994Z,0.00
2019-02-11T02:37:11.978Z,0.00
2019-02-11T02:38:11.965Z,0.00
2019-02-11T02:39:11.950Z,0.00
2019-02-11T02:40:11.934Z,0.00
2019-02-11T02:41:11.919Z,0.00
2019-02-11T02:42:11.903Z,0.00
2019-02-11T02:43:11.914Z,0.00
2019-02-11T02:44:11.874Z,0.00
2019-02-11T02:45:11.859Z,0.00
2019-02-11T02:46:11.844Z,0.00
2019-02-11T02:47:11.831Z,0.00
2019-02-11T02:48:11.815Z,0.00
2019-02-11T02:49:11.800Z,0.00
2019-02-11T02:50:11.784Z,0.00
2019-02-11T02:51:11.770Z,0.00
2019-02-11T02:52:11.755Z,0.00
2019-02-11T02:53:11.742Z,0.00
2019-02-11T02:54:11.725Z,0.00
2019-02-11T02:55:11.769Z,0.00
2019-02-11T02:56:11.697Z,0.00
2019-02-11T02:57:11.741Z,0.00
2019-02-11T02:58:11.666Z,0.00
2019-02-11T02:59:11.653Z,0.00
2019-02-11T03:00:11.693Z,0.00
2019-02-11T03:01:11.623Z,0.00
2019-02-11T03:02:11.607Z,0.00
2019-02-11T03:03:11.603Z,0.00
2019-02-11T03:04:11.578Z,0.00
2019-02-11T03:05:11.564Z,0.00
2019-02-11T03:06:11.549Z,0.00
2019-02-11T03:07:11.538Z,0.00
2019-02-11T03:08:11.521Z,0.00
2019-02-11T03:09:11.505Z,0.00
2019-02-11T03:10:11.491Z,0.00
2019-02-11T03:11:11.478Z,0.00
2019-02-11T03:12:11.461Z,0.00
2019-02-11T03:13:11.462Z,0.00
2019-02-11T03:14:11.433Z,0.00
2019-02-11T03:15:11.416Z,0.00
2019-02-11T03:16:11.403Z,0.00
2019-02-11T03:17:11.390Z,0.00
2019-02-11T03:18:11.373Z,0.00
2019-02-11T03:19:11.360Z,0.00
2019-02-11T03:20:11.344Z,0.00
2019-02-11T03:21:11.333Z,0.00
2019-02-11T03:22:11.315Z,0.00
2019-02-11T03:23:11.303Z,0.00
2019-02-11T03:24:11.286Z,0.00
2019-02-11T03:25:11.323Z,0.00
2019-02-11T03:26:11.256Z,0.00
2019-02-11T03:27:11.242Z,0.00
2019-02-11T03:28:11.228Z,0.00
2019-02-11T03:29:11.214Z,0.00
2019-02-11T03:30:11.294Z,0.00
2019-02-11T03:31:11.187Z,0.00
2019-02-11T03:32:11.177Z,0.00
2019-02-11T03:33:11.155Z,0.00
2019-02-11T03:34:11.140Z,0.00
2019-02-11T03:35:11.123Z,0.00
2019-02-11T03:36:11.109Z,0.00
2019-02-11T03:37:11.097Z,0.00
2019-02-11T03:38:11.079Z,0.00
2019-02-11T03:39:11.065Z,0.00
2019-02-11T03:40:11.052Z,0.00
2019-02-11T03:41:11.037Z,0.00
2019-02-11T03:42:11.025Z,0.00
2019-02-11T03:43:11.007Z,0.00
2019-02-11T03:44:15.062Z,0.00
2019-02-11T03:45:10.981Z,0.00
2019-02-11T03:46:10.962Z,0.00
2019-02-11T03:47:10.949Z,0.00
2019-02-11T03:48:10.933Z,0.00
2019-02-11T03:49:10.919Z,0.00
2019-02-11T03:50:10.903Z,0.00
2019-02-11T03:51:10.953Z,0.00
2019-02-11T03:52:10.874Z,0.00
2019-02-11T03:53:10.863Z,0.00
2019-02-11T03:54:10.853Z,0.00
2019-02-11T03:55:10.835Z,0.00
2019-02-11T03:56:10.816Z,0.00
2019-02-11T03:57:10.802Z,0.00
2019-02-11T03:58:10.786Z,0.00
2019-02-11T03:59:10.772Z,0.00
2019-02-11T04:00:10.757Z,0.00
2019-02-11T04:01:10.742Z,0.00
2019-02-11T04:02:10.727Z,0.00
2019-02-11T04:03:10.714Z,0.00
2019-02-11T04:04:10.709Z,0.00
2019-02-11T04:05:10.684Z,0.00
2019-02-11T04:06:10.670Z,0.00
2019-02-11T04:07:10.665Z,0.00
2019-02-11T04:08:10.645Z,0.00
2019-02-11T04:09:10.627Z,0.00
2019-02-11T04:10:10.614Z,0.00
2019-02-11T04:11:10.597Z,0.00
2019-02-11T04:12:10.584Z,0.00
2019-02-11T04:13:10.567Z,0.00
2019-02-11T04:14:10.551Z,0.00
2019-02-11T04:15:10.536Z,0.00
2019-02-11T04:16:10.522Z,0.00
2019-02-11T04:17:10.512Z,0.00
2019-02-11T04:18:10.493Z,0.00
2019-02-11T04:19:10.477Z,0.00
2019-02-11T04:20:10.549Z,0.00
2019-02-11T04:21:10.507Z,0.00
2019-02-11T04:22:10.433Z,0.00
2019-02-11T04:23:10.420Z,0.00
2019-02-11T04:24:10.405Z,0.00
2019-02-11T04:25:10.390Z,0.00
2019-02-11T04:26:10.376Z,0.00
2019-02-11T04:27:10.360Z,0.00
2019-02-11T04:28:10.350Z,0.00
2019-02-11T04:29:10.330Z,0.00
2019-02-11T04:30:10.315Z,0.00
2019-02-11T04:31:10.300Z,0.00
2019-02-11T04:32:10.286Z,0.00
2019-02-11T04:33:10.271Z,0.00
2019-02-11T04:34:10.273Z,0.00
2019-02-11T04:35:10.244Z,0.00
2019-02-11T04:36:10.226Z,0.00
2019-02-11T04:37:10.212Z,0.00
2019-02-11T04:38:10.200Z,0.00
2019-02-11T04:39:10.181Z,0.00
2019-02-11T04:40:10.170Z,0.00
2019-02-11T04:41:10.955Z,0.00
2019-02-11T04:42:10.138Z,0.00
2019-02-11T04:43:10.126Z,0.00
2019-02-11T04:44:10.108Z,0.00
2019-02-11T04:45:10.095Z,0.00
2019-02-11T04:46:10.077Z,0.00
2019-02-11T04:47:10.065Z,0.00
2019-02-11T04:48:10.049Z,0.00
2019-02-11T04:49:10.034Z,0.00
2019-02-11T04:50:10.019Z,0.00
2019-02-11T04:51:10.009Z,0.00
2019-02-11T04:52:09.998Z,0.00
2019-02-11T04:53:09.977Z,0.00
2019-02-11T04:54:09.961Z,0.00
2019-02-11T04:55:09.947Z,0.00
2019-02-11T04:56:09.932Z,0.00
2019-02-11T04:57:09.916Z,0.00
2019-02-11T04:58:09.901Z,0.00
2019-02-11T04:59:09.887Z,0.00
2019-02-11T05:00:09.872Z,0.00
2019-02-11T05:01:09.858Z,0.00
2019-02-11T05:02:09.842Z,0.00
2019-02-11T05:03:09.828Z,0.00
2019-02-11T05:04:09.815Z,0.00
2019-02-11T05:05:09.802Z,0.00
2019-02-11T05:06:09.785Z,0.00
2019-02-11T05:07:09.770Z,0.00
2019-02-11T05:08:09.762Z,0.00
2019-02-11T05:09:09.740Z,0.00
2019-02-11T05:10:09.724Z,0.00
2019-02-11T05:11:09.709Z,0.00
2019-02-11T05:12:09.697Z,0.00
2019-02-11T05:13:09.680Z,0.00
2019-02-11T05:14:09.664Z,0.00
2019-02-11T05:15:09.657Z,0.00
2019-02-11T05:16:09.637Z,0.00
2019-02-11T05:17:09.621Z,0.00
2019-02-11T05:18:09.605Z,0.00
2019-02-11T05:19:09.591Z,0.00
2019-02-11T05:20:09.579Z,0.00
2019-02-11T05:21:09.563Z,0.00
2019-02-11T05:22:09.546Z,0.00
2019-02-11T05:23:09.532Z,0.00
2019-02-11T05:24:09.520Z,0.00
2019-02-11T05:25:09.503Z,0.00
2019-02-11T05:26:09.494Z,0.00
2019-02-11T05:27:09.473Z,0.00
2019-02-11T05:28:09.472Z,0.00
2019-02-11T05:29:09.456Z,0.00
2019-02-11T05:30:09.433Z,0.00
2019-02-11T05:31:09.413Z,0.00
2019-02-11T05:32:09.399Z,0.00
2019-02-11T05:33:09.420Z,0.00
2019-02-11T05:34:09.368Z,0.00
2019-02-11T05:35:09.396Z,0.00
2019-02-11T05:36:09.350Z,0.00
2019-02-11T05:37:09.323Z,0.00
2019-02-11T05:38:09.311Z,0.00
2019-02-11T05:39:09.293Z,0.00
2019-02-11T05:40:09.280Z,0.00
2019-02-11T05:41:09.264Z,0.00
2019-02-11T05:42:09.248Z,0.00
2019-02-11T05:43:09.234Z,0.00
2019-02-11T05:44:09.219Z,0.00
2019-02-11T05:45:09.208Z,0.00
2019-02-11T05:46:09.195Z,0.00
2019-02-11T05:47:09.173Z,0.00
2019-02-11T05:48:09.164Z,0.00
2019-02-11T05:49:09.153Z,0.00
2019-02-11T05:50:09.129Z,0.00
2019-02-11T05:51:09.116Z,0.00
2019-02-11T05:52:09.099Z,0.00
2019-02-11T05:53:09.085Z,0.00
2019-02-11T05:54:09.069Z,0.00
2019-02-11T05:55:09.055Z,0.00
2019-02-11T05:56:09.040Z,0.00
2019-02-11T05:57:09.025Z,0.00
2019-02-11T05:58:09.057Z,0.00
2019-02-11T05:59:09.002Z,0.00
2019-02-11T06:00:08.981Z,0.00
2019-02-11T06:01:08.966Z,0.00
2019-02-11T06:02:08.950Z,0.00
2019-02-11T06:03:09.626Z,0.00
2019-02-11T06:04:08.922Z,0.00
2019-02-11T06:05:08.907Z,0.00
2019-02-11T06:06:08.894Z,0.00
2019-02-11T06:07:08.877Z,0.00
2019-02-11T06:08:08.863Z,0.00
2019-02-11T06:09:08.848Z,0.00
2019-02-11T06:10:08.832Z,0.00
2019-02-11T06:11:08.818Z,0.00
2019-02-11T06:12:08.803Z,0.00
2019-02-11T06:13:08.790Z,0.00
2019-02-11T06:14:08.774Z,0.00
2019-02-11T06:15:08.759Z,0.00
2019-02-11T06:16:08.744Z,0.00
2019-02-11T06:17:08.731Z,0.00
2019-02-11T06:18:08.714Z,0.00
2019-02-11T06:19:08.700Z,0.00
2019-02-11T06:20:08.687Z,0.00
2019-02-11T06:21:08.671Z,0.00
2019-02-11T06:22:08.655Z,0.00
2019-02-11T06:23:08.641Z,0.00
2019-02-11T06:24:08.627Z,0.00
2019-02-11T06:25:08.613Z,0.00
2019-02-11T06:26:08.597Z,0.00
2019-02-11T06:27:08.584Z,0.00
2019-02-11T06:28:08.568Z,4.00
2019-02-11T06:29:08.553Z,4.00
2019-02-11T06:30:08.538Z,4.00
2019-02-11T06:31:08.523Z,4.00
2019-02-11T06:32:08.512Z,0.00
2019-02-11T06:33:08.494Z,4.00
2019-02-11T06:34:08.481Z,4.00
2019-02-11T06:35:08.465Z,8.00
2019-02-11T06:36:12.314Z,8.00
2019-02-11T06:37:08.437Z,8.00
2019-02-11T06:38:08.424Z,8.00
2019-02-11T06:39:08.409Z,12.00
2019-02-11T06:40:08.401Z,16.00
2019-02-11T06:41:08.378Z,16.00
2019-02-11T06:42:08.363Z,20.00
2019-02-11T06:43:08.348Z,20.00
2019-02-11T06:44:08.334Z,20.00
2019-02-11T06:45:13.126Z,24.00
2019-02-11T06:46:08.304Z,32.00
2019-02-11T06:47:08.290Z,40.00
2019-02-11T06:48:08.275Z,48.00
2019-02-11T06:49:08.262Z,60.00
2019-02-11T06:50:08.247Z,68.00
2019-02-11T06:51:08.233Z,72.00
2019-02-11T06:52:08.219Z,80.00
2019-02-11T06:53:08.202Z,76.00
2019-02-11T06:54:08.185Z,80.00
2019-02-11T06:55:08.171Z,92.00
2019-02-11T06:56:08.156Z,96.00
2019-02-11T06:57:08.144Z,104.00
2019-02-11T06:58:08.128Z,116.00
2019-02-11T06:59:08.112Z,124.00
2019-02-11T07:00:08.097Z,140.00
2019-02-11T07:01:08.087Z,156.00
2019-02-11T07:02:08.067Z,184.00
2019-02-11T07:03:08.053Z,208.00
2019-02-11T07:04:08.039Z,200.00
2019-02-11T07:05:08.033Z,216.00
2019-02-11T07:06:08.008Z,232.00
2019-02-11T07:07:07.994Z,264.00
2019-02-11T07:08:08.206Z,300.00
2019-02-11T07:09:07.964Z,348.00
2019-02-11T07:10:07.949Z,380.00
2019-02-11T07:11:07.934Z,352.00
2019-02-11T07:12:07.920Z,364.00
2019-02-11T07:13:07.905Z,392.00
2019-02-11T07:14:07.890Z,440.00
2019-02-11T07:15:07.875Z,452.00
2019-02-11T07:16:07.861Z,492.00
2019-02-11T07:17:07.847Z,500.00
2019-02-11T07:18:07.830Z,484.00
2019-02-11T07:19:07.815Z,544.00
2019-02-11T07:20:07.801Z,612.00
2019-02-11T07:21:07.786Z,584.00
2019-02-11T07:22:07.771Z,584.00
2019-02-11T07:23:07.756Z,652.00
2019-02-11T07:24:07.742Z,664.00
2019-02-11T07:25:07.728Z,656.00
2019-02-11T07:26:07.712Z,700.00
2019-02-11T07:27:07.698Z,752.00
2019-02-11T07:28:07.683Z,636.00
2019-02-11T07:29:07.669Z,516.00
2019-02-11T07:30:07.655Z,548.00
2019-02-11T07:31:07.638Z,592.00
2019-02-11T07:32:07.624Z,612.00
2019-02-11T07:33:07.610Z,588.00
2019-02-11T07:34:07.596Z,608.00
2019-02-11T07:35:07.581Z,660.00
2019-02-11T07:36:07.567Z,704.00
2019-02-11T07:37:07.552Z,704.00
2019-02-11T07:38:07.536Z,704.00
2019-02-11T07:39:07.523Z,776.00
2019-02-11T07:40:07.508Z,932.00
2019-02-11T07:41:07.492Z,944.00
2019-02-11T07:42:07.477Z,848.00
2019-02-11T07:43:07.464Z,904.00
2019-02-11T07:44:07.449Z,844.00
2019-02-11T07:45:07.434Z,836.00
2019-02-11T07:46:07.421Z,836.00
2019-02-11T07:47:07.405Z,812.00
2019-02-11T07:48:07.390Z,960.00
2019-02-11T07:49:07.376Z,896.00
2019-02-11T07:50:07.360Z,964.00
2019-02-11T07:51:07.347Z,948.00
2019-02-11T07:52:07.332Z,952.00
2019-02-11T07:53:07.322Z,1420.00
2019-02-11T07:54:07.303Z,1328.00
2019-02-11T07:55:07.290Z,1068.00
2019-02-11T07:56:07.275Z,1040.00
2019-02-11T07:57:07.260Z,832.00
2019-02-11T07:58:07.245Z,836.00
2019-02-11T07:59:07.231Z,1008.00
2019-02-11T08:00:07.217Z,840.00
2019-02-11T08:01:07.203Z,828.00
2019-02-11T08:02:07.187Z,1312.00
2019-02-11T08:03:07.178Z,964.00
2019-02-11T08:04:07.159Z,680.00
2019-02-11T08:05:07.144Z,816.00
2019-02-11T08:06:08.956Z,1088.00
2019-02-11T08:07:07.114Z,984.00
2019-02-11T08:08:07.104Z,1104.00
2019-02-11T08:09:07.089Z,1476.00
2019-02-11T08:10:07.070Z,1504.00
2019-02-11T08:11:07.057Z,1868.00
2019-02-11T08:12:07.042Z,1740.00
2019-02-11T08:13:07.028Z,1712.00
2019-02-11T08:14:07.012Z,1716.00
2019-02-11T08:15:06.999Z,2044.00
2019-02-11T08:16:06.984Z,1924.00
2019-02-11T08:17:06.970Z,1656.00
2019-02-11T08:18:06.954Z,1924.00
2019-02-11T08:19:06.942Z,2192.00
2019-02-11T08:20:06.927Z,2152.00
2019-02-11T08:21:06.914Z,2272.00
2019-02-11T08:22:06.897Z,2928.00
2019-02-11T08:23:13.079Z,2836.00
2019-02-11T08:24:06.869Z,3492.00
2019-02-11T08:25:06.858Z,3052.00
2019-02-11T08:26:06.840Z,2520.00
2019-02-11T08:27:06.826Z,2256.00
2019-02-11T08:28:06.811Z,2156.00
2019-02-11T08:29:06.797Z,2452.00
2019-02-11T08:30:06.796Z,2488.00
2019-02-11T08:31:06.770Z,2180.00
2019-02-11T08:32:06.755Z,2884.00
2019-02-11T08:33:06.742Z,2804.00
2019-02-11T08:34:06.727Z,2328.00
2019-02-11T08:35:06.714Z,2204.00
2019-02-11T08:36:06.700Z,2472.00
2019-02-11T08:37:06.689Z,2504.00
2019-02-11T08:38:06.671Z,2168.00
2019-02-11T08:39:06.657Z,2632.00
2019-02-11T08:40:06.643Z,2272.00
2019-02-11T08:41:06.630Z,2876.00
2019-02-11T08:42:06.615Z,2204.00
2019-02-11T08:43:06.601Z,1660.00
2019-02-11T08:44:06.587Z,2184.00
2019-02-11T08:45:06.574Z,2904.00
2019-02-11T08:46:06.560Z,2648.00
2019-02-11T08:47:06.546Z,2456.00
2019-02-11T08:48:06.532Z,3340.00
2019-02-11T08:49:06.530Z,3484.00
2019-02-11T08:50:06.505Z,2908.00
2019-02-11T08:51:06.491Z,3140.00
2019-02-11T08:52:06.477Z,2548.00
2019-02-11T08:53:06.463Z,3500.00
2019-02-11T08:54:06.449Z,3708.00
2019-02-11T08:55:06.435Z,4260.00
2019-02-11T08:56:06.422Z,4648.00
2019-02-11T08:57:06.408Z,5064.00
2019-02-11T08:58:06.395Z,5444.00
2019-02-11T08:59:06.380Z,4480.00
2019-02-11T09:00:06.369Z,3860.00
2019-02-11T09:01:06.354Z,4680.00
2019-02-11T09:02:06.340Z,4496.00
2019-02-11T09:03:06.332Z,5448.00
2019-02-11T09:04:06.315Z,6140.00
2019-02-11T09:05:06.302Z,5156.00
2019-02-11T09:06:06.287Z,4404.00
2019-02-11T09:07:06.275Z,3676.00
2019-02-11T09:08:06.261Z,4600.00
2019-02-11T09:09:06.248Z,4184.00
2019-02-11T09:10:06.234Z,4084.00
2019-02-11T09:11:06.222Z,4816.00
2019-02-11T09:12:06.209Z,5768.00
2019-02-11T09:13:06.196Z,5588.00
2019-02-11T09:14:06.183Z,6016.00
2019-02-11T09:15:06.170Z,5236.00
2019-02-11T09:16:06.157Z,4452.00
2019-02-11T09:17:10.476Z,3104.00
2019-02-11T09:18:06.132Z,3288.00
2019-02-11T09:19:06.121Z,3456.00
2019-02-11T09:20:06.106Z,5148.00
2019-02-11T09:21:06.095Z,6384.00
2019-02-11T09:22:07.805Z,7336.00
2019-02-11T09:23:06.069Z,10008.00
2019-02-11T09:24:06.058Z,9680.00
2019-02-11T09:25:06.044Z,9020.00
2019-02-11T09:26:06.031Z,7468.00
2019-02-11T09:27:06.019Z,4912.00
2019-02-11T09:28:06.008Z,4432.00
2019-02-11T09:29:05.996Z,4600.00
2019-02-11T09:30:05.984Z,4468.00
2019-02-11T09:31:05.973Z,6132.00
2019-02-11T09:32:05.961Z,15264.00
2019-02-11T09:33:05.950Z,9292.00
2019-02-11T09:34:05.937Z,5392.00
2019-02-11T09:35:05.926Z,5920.00
2019-02-11T09:36:05.915Z,6500.00
2019-02-11T09:37:05.904Z,6680.00
2019-02-11T09:38:05.891Z,6840.00
2019-02-11T09:39:05.880Z,5764.00
2019-02-11T09:40:05.869Z,4796.00
2019-02-11T09:41:05.857Z,3956.00
2019-02-11T09:42:05.844Z,3324.00
2019-02-11T09:43:05.832Z,3636.00
2019-02-11T09:44:05.822Z,5300.00
2019-02-11T09:45:05.809Z,4492.00
2019-02-11T09:46:05.795Z,3788.00
2019-02-11T09:47:05.784Z,4952.00
2019-02-11T09:48:05.773Z,4500.00
2019-02-11T09:49:05.768Z,4560.00
2019-02-11T09:50:05.750Z,4240.00
2019-02-11T09:51:05.735Z,4428.00
2019-02-11T09:52:05.722Z,3300.00
2019-02-11T09:53:05.710Z,4420.00
2019-02-11T09:54:05.698Z,4948.00
2019-02-11T09:55:05.684Z,3492.00
2019-02-11T09:56:05.672Z,2452.00
2019-02-11T09:57:05.660Z,5728.00
2019-02-11T09:58:05.647Z,6756.00
2019-02-11T09:59:05.636Z,5780.00
2019-02-11T10:00:05.630Z,6000.00
2019-02-11T10:01:05.609Z,7660.00
2019-02-11T10:02:05.596Z,7788.00
2019-02-11T10:03:05.584Z,6404.00
2019-02-11T10:04:05.571Z,7684.00
2019-02-11T10:05:05.559Z,6692.00
2019-02-11T10:06:05.552Z,6072.00
2019-02-11T10:07:05.533Z,7336.00
2019-02-11T10:08:05.521Z,5432.00
2019-02-11T10:09:05.509Z,5376.00
2019-02-11T10:10:05.495Z,6180.00
2019-02-11T10:11:05.483Z,6204.00
2019-02-11T10:12:05.472Z,5136.00
2019-02-11T10:13:05.479Z,5408.00
2019-02-11T10:14:05.445Z,5356.00
2019-02-11T10:15:05.432Z,7124.00
2019-02-11T10:16:12.286Z,9600.00
2019-02-11T10:17:05.407Z,8564.00
2019-02-11T10:18:05.394Z,7404.00
2019-02-11T10:19:05.382Z,7580.00
2019-02-11T10:20:05.370Z,4472.00
2019-02-11T10:21:05.360Z,5372.00
2019-02-11T10:22:05.344Z,6512.00
2019-02-11T10:23:05.333Z,8164.00
2019-02-11T10:24:05.321Z,4156.00
2019-02-11T10:25:05.308Z,5008.00
2019-02-11T10:26:05.294Z,8512.00
2019-02-11T10:27:05.282Z,5968.00
2019-02-11T10:28:05.270Z,8240.00
2019-02-11T10:29:05.259Z,6240.00
2019-02-11T10:30:05.251Z,12580.00
2019-02-11T10:31:05.234Z,10908.00
2019-02-11T10:32:05.222Z,12656.00
2019-02-11T10:33:05.212Z,7168.00
2019-02-11T10:34:05.199Z,7804.00
2019-02-11T10:35:05.189Z,9276.00
2019-02-11T10:36:05.178Z,9324.00
2019-02-11T10:37:05.166Z,9760.00
2019-02-11T10:38:05.155Z,7268.00
2019-02-11T10:39:05.145Z,6884.00
2019-02-11T10:40:05.135Z,6224.00
2019-02-11T10:41:05.124Z,6420.00
2019-02-11T10:42:05.160Z,5600.00
2019-02-11T10:43:05.101Z,6400.00
2019-02-11T10:44:05.091Z,13796.00
2019-02-11T10:45:05.080Z,9520.00
2019-02-11T10:46:05.067Z,7584.00
2019-02-11T10:47:05.057Z,7852.00
2019-02-11T10:48:05.046Z,10964.00
2019-02-11T10:49:05.035Z,5116.00
2019-02-11T10:50:05.023Z,3944.00
2019-02-11T10:51:05.012Z,3976.00
2019-02-11T10:52:05.001Z,6292.00
2019-02-11T10:53:04.990Z,7100.00
2019-02-11T10:54:04.978Z,7648.00
2019-02-11T10:55:04.967Z,11908.00
2019-02-11T10:56:04.956Z,10668.00
2019-02-11T10:57:04.946Z,16064.00
2019-02-11T10:58:04.934Z,11076.00
2019-02-11T10:59:04.924Z,4792.00
2019-02-11T11:00:04.914Z,4620.00
2019-02-11T11:01:04.903Z,7144.00
2019-02-11T11:02:04.892Z,7376.00
2019-02-11T11:03:04.882Z,7320.00
2019-02-11T11:04:04.872Z,9968.00
2019-02-11T11:05:04.861Z,9716.00
2019-02-11T11:06:04.849Z,7796.00
2019-02-11T11:07:04.839Z,8812.00
2019-02-11T11:08:04.829Z,8144.00
2019-02-11T11:09:04.820Z,9660.00
2019-02-11T11:10:04.806Z,6940.00
2019-02-11T11:11:04.797Z,13476.00
2019-02-11T11:12:04.786Z,13540.00
2019-02-11T11:13:04.777Z,16192.00
2019-02-11T11:14:04.765Z,19136.00
2019-02-11T11:15:04.757Z,14840.00
2019-02-11T11:16:04.749Z,17984.00
2019-02-11T11:17:04.739Z,13224.00
2019-02-11T11:18:04.727Z,13828.00
2019-02-11T11:19:04.719Z,8760.00
2019-02-11T11:20:04.710Z,11940.00
2019-02-11T11:21:04.701Z,8392.00
2019-02-11T11:22:04.693Z,7060.00
2019-02-11T11:23:04.682Z,5808.00
2019-02-11T11:24:04.672Z,5956.00
2019-02-11T11:25:04.662Z,7340.00
2019-02-11T11:26:04.655Z,7156.00
2019-02-11T11:27:04.646Z,8572.00
2019-02-11T11:28:04.632Z,9096.00
2019-02-11T11:29:05.937Z,6992.00
2019-02-11T11:30:04.610Z,7584.00
2019-02-11T11:31:04.603Z,7468.00
2019-02-11T11:32:04.591Z,5924.00
2019-02-11T11:33:04.580Z,5500.00
2019-02-11T11:34:04.568Z,5028.00
2019-02-11T11:35:04.557Z,5316.00
2019-02-11T11:36:04.548Z,4832.00
2019-02-11T11:37:04.536Z,6724.00
2019-02-11T11:38:04.525Z,8092.00
2019-02-11T11:39:04.514Z,10096.00
2019-02-11T11:40:04.504Z,7772.00
2019-02-11T11:41:04.496Z,7852.00
2019-02-11T11:42:04.483Z,12432.00
2019-02-11T11:43:04.472Z,9192.00
2019-02-11T11:44:04.462Z,11828.00
2019-02-11T11:45:04.452Z,11816.00
2019-02-11T11:46:04.443Z,13000.00
2019-02-11T11:47:04.432Z,12348.00
2019-02-11T11:48:04.423Z,13432.00
2019-02-11T11:49:04.414Z,15776.00
2019-02-11T11:50:04.404Z,15936.00
2019-02-11T11:51:04.396Z,16576.00
2019-02-11T11:52:04.387Z,13768.00
2019-02-11T11:53:04.378Z,12264.00
2019-02-11T11:54:04.371Z,10692.00
2019-02-11T11:55:04.362Z,8796.00
2019-02-11T11:56:04.361Z,8104.00
2019-02-11T11:57:04.350Z,11360.00
2019-02-11T11:58:04.341Z,7784.00
2019-02-11T11:59:04.347Z,5528.00
2019-02-11T12:00:04.326Z,3752.00
2019-02-11T12:01:04.324Z,4504.00
2019-02-11T12:02:04.308Z,5508.00
2019-02-11T12:03:05.633Z,5092.00
2019-02-11T12:04:06.527Z,4432.00
2019-02-11T12:05:04.279Z,5628.00
2019-02-11T12:06:04.948Z,6476.00
2019-02-11T12:07:04.259Z,5996.00
2019-02-11T12:08:04.262Z,4896.00
2019-02-11T12:09:04.240Z,5280.00
2019-02-11T12:10:04.231Z,6196.00
2019-02-11T12:11:04.225Z,8220.00
2019-02-11T12:12:04.233Z,7836.00
2019-02-11T12:13:21.411Z,7140.00
2019-02-11T12:14:04.201Z,8544.00
2019-02-11T12:15:04.177Z,7684.00
2019-02-11T12:16:04.175Z,7144.00
2019-02-11T12:17:04.169Z,4960.00
2019-02-11T12:18:04.149Z,3856.00
2019-02-11T12:19:04.137Z,5640.00
2019-02-11T12:20:04.125Z,7920.00
2019-02-11T12:21:04.122Z,9380.00
2019-02-11T12:22:04.106Z,7308.00
2019-02-11T12:23:04.132Z,6976.00
2019-02-11T12:24:04.088Z,8524.00
2019-02-11T12:25:04.070Z,7516.00
2019-02-11T12:26:04.063Z,7700.00
2019-02-11T12:27:04.061Z,7380.00
2019-02-11T12:28:04.036Z,5844.00
2019-02-11T12:29:04.029Z,5292.00
2019-02-11T12:30:04.033Z,6188.00
2019-02-11T12:31:04.006Z,6420.00
2019-02-11T12:32:04.133Z,6724.00
2019-02-11T12:33:04.034Z,8480.00
2019-02-11T12:34:03.971Z,9824.00
2019-02-11T12:35:03.971Z,12324.00
2019-02-11T12:36:03.947Z,11260.00
2019-02-11T12:37:03.939Z,9876.00
2019-02-11T12:38:03.939Z,9584.00
2019-02-11T12:39:03.916Z,7516.00
2019-02-11T12:40:03.907Z,6372.00
2019-02-11T12:41:03.897Z,5480.00
2019-02-11T12:42:03.887Z,5140.00
2019-02-11T12:43:03.910Z,4724.00
2019-02-11T12:44:03.861Z,4612.00